createdAt,value
2017-12-28T00:00:13.695Z,2.70
2017-12-28T00:02:41.981Z,2.60
2017-12-28T00:05:10.307Z,2.40
2017-12-28T00:07:38.602Z,2.30
2017-12-28T00:10:06.899Z,2.83
2017-12-28T00:12:35.217Z,2.03
2017-12-28T00:15:03.512Z,2.83
2017-12-28T00:17:32.816Z,2.30
2017-12-28T00:20:01.152Z,2.80
2017-12-28T00:22:29.445Z,2.60
2017-12-28T00:24:57.739Z,2.93
2017-12-28T00:27:26.028Z,2.40
2017-12-28T00:29:54.346Z,2.50
2017-12-28T00:32:22.626Z,3.37
2017-12-28T00:34:51.811Z,2.90
2017-12-28T00:37:20.113Z,3.47
2017-12-28T00:39:48.438Z,2.80
2017-12-28T00:42:16.732Z,2.40
2017-12-28T00:44:45.079Z,3.13
2017-12-28T00:47:13.387Z,3.10
2017-12-28T00:49:41.686Z,2.83
2017-12-28T00:52:09.969Z,2.90
2017-12-28T00:54:39.005Z,2.90
2017-12-28T00:57:07.296Z,2.63
2017-12-28T00:59:35.573Z,2.87
2017-12-28T01:02:04.865Z,3.33
2017-12-28T01:04:33.159Z,2.97
2017-12-28T01:07:01.474Z,3.20
2017-12-28T01:09:29.793Z,2.60
2017-12-28T01:11:58.111Z,3.07
2017-12-28T01:14:26.425Z,2.50
2017-12-28T01:16:54.690Z,2.70
2017-12-28T01:19:22.997Z,3.60
2017-12-28T01:21:51.303Z,2.17
2017-12-28T01:24:19.620Z,2.70
2017-12-28T01:26:47.933Z,2.73
2017-12-28T01:29:16.229Z,3.03
2017-12-28T01:31:44.514Z,3.33
2017-12-28T01:34:12.813Z,3.60
2017-12-28T01:36:42.814Z,2.70
2017-12-28T01:39:11.109Z,3.33
2017-12-28T01:41:39.399Z,3.23
2017-12-28T01:44:07.710Z,4.10
2017-12-28T01:46:36.038Z,3.97
2017-12-28T01:49:04.374Z,3.73
2017-12-28T01:51:32.690Z,4.30
2017-12-28T01:54:00.967Z,3.80
2017-12-28T01:56:29.257Z,3.33
2017-12-28T01:58:57.627Z,4.40
2017-12-28T02:01:26.658Z,4.20
2017-12-28T02:03:54.932Z,4.30
2017-12-28T02:06:23.237Z,3.50
2017-12-28T02:08:51.545Z,3.27
2017-12-28T02:11:21.034Z,4.70
2017-12-28T02:13:49.665Z,4.50
2017-12-28T02:16:17.942Z,5.07
2017-12-28T02:18:50.758Z,4.47
2017-12-28T02:21:19.554Z,4.00
2017-12-28T02:23:47.858Z,4.83
2017-12-28T02:26:16.151Z,4.60
2017-12-28T02:28:48.026Z,5.90
2017-12-28T02:31:16.335Z,4.63
2017-12-28T02:33:44.601Z,4.27
2017-12-28T02:36:12.946Z,6.13
2017-12-28T02:38:41.209Z,4.67
2017-12-28T02:41:09.537Z,4.77
2017-12-28T02:43:37.868Z,4.47
2017-12-28T02:46:06.140Z,5.50
2017-12-28T02:48:34.459Z,5.00
2017-12-28T02:51:04.742Z,5.80
2017-12-28T02:53:33.037Z,5.90
2017-12-28T02:56:02.077Z,4.67
2017-12-28T02:58:30.390Z,5.03
2017-12-28T03:00:58.688Z,4.30
2017-12-28T03:03:26.986Z,5.37
2017-12-28T03:05:55.299Z,5.40
2017-12-28T03:08:23.634Z,4.50
2017-12-28T03:10:52.051Z,4.80
2017-12-28T03:13:20.362Z,5.80
2017-12-28T03:15:51.228Z,5.30
2017-12-28T03:18:19.558Z,4.73
2017-12-28T03:20:47.857Z,5.40
2017-12-28T03:23:16.137Z,5.17
2017-12-28T03:25:45.204Z,4.80
2017-12-28T03:28:15.162Z,3.07
2017-12-28T03:30:43.465Z,4.47
2017-12-28T03:33:11.775Z,5.93
2017-12-28T03:35:40.097Z,4.93
2017-12-28T03:38:08.437Z,5.60
2017-12-28T03:40:37.476Z,4.50
2017-12-28T03:43:05.779Z,4.30
2017-12-28T03:45:34.157Z,5.23
2017-12-28T03:48:02.433Z,4.17
2017-12-28T03:50:30.755Z,3.20
2017-12-28T03:53:01.037Z,3.40
2017-12-28T03:55:29.341Z,3.67
2017-12-28T03:57:57.614Z,3.57
2017-12-28T04:00:25.904Z,2.77
2017-12-28T04:02:54.210Z,3.00
2017-12-28T04:05:23.241Z,2.97
2017-12-28T04:07:51.597Z,2.67
2017-12-28T04:10:20.924Z,2.97
2017-12-28T04:12:50.695Z,2.87
2017-12-28T04:15:19.742Z,2.93
2017-12-28T04:17:48.079Z,2.50
2017-12-28T04:20:16.362Z,2.67
2017-12-28T04:22:44.666Z,2.80
2017-12-28T04:25:13.922Z,3.03
2017-12-28T04:27:42.215Z,3.30
2017-12-28T04:30:11.286Z,3.43
2017-12-28T04:32:40.370Z,2.63
2017-12-28T04:35:09.468Z,2.90
2017-12-28T04:37:37.780Z,3.00
2017-12-28T04:40:06.095Z,2.70
2017-12-28T04:42:34.374Z,2.53
2017-12-28T04:45:02.680Z,2.90
2017-12-28T04:47:31.766Z,3.03
2017-12-28T04:50:00.115Z,3.70
2017-12-28T04:54:52.167Z,2.73
2017-12-28T04:57:20.452Z,2.77
2017-12-28T04:59:48.988Z,2.80
2017-12-28T05:02:17.304Z,2.10
2017-12-28T05:04:45.631Z,3.10
2017-12-28T05:07:13.924Z,2.70
2017-12-28T05:09:42.232Z,2.30
2017-12-28T05:12:11.280Z,2.53
2017-12-28T05:14:39.585Z,2.27
2017-12-28T05:17:08.659Z,2.37
2017-12-28T05:19:36.983Z,2.37
2017-12-28T05:22:05.292Z,2.60
2017-12-28T05:24:33.600Z,2.27
2017-12-28T05:27:01.913Z,2.67
2017-12-28T05:29:30.981Z,2.83
2017-12-28T05:31:59.333Z,2.10
2017-12-28T05:34:28.393Z,2.30
2017-12-28T05:36:57.467Z,2.33
2017-12-28T05:39:29.625Z,2.03
2017-12-28T05:41:57.926Z,1.77
2017-12-28T05:44:26.246Z,1.40
2017-12-28T05:46:54.532Z,2.20
2017-12-28T05:49:23.614Z,2.50
2017-12-28T05:51:51.886Z,2.40
2017-12-28T05:54:20.193Z,2.00
2017-12-28T05:56:48.497Z,1.60
2017-12-28T05:59:16.782Z,2.33
2017-12-28T06:01:45.094Z,2.47
2017-12-28T06:04:13.434Z,1.97
2017-12-28T06:06:41.777Z,1.90
2017-12-28T06:09:10.046Z,2.10
2017-12-28T06:11:38.335Z,2.03
2017-12-28T06:14:06.634Z,1.73
2017-12-28T06:16:35.689Z,1.80
2017-12-28T06:19:05.661Z,1.80
2017-12-28T06:21:33.930Z,2.07
2017-12-28T06:24:02.262Z,1.63
2017-12-28T06:26:31.457Z,1.93
2017-12-28T06:28:59.754Z,2.40
2017-12-28T06:31:28.064Z,2.50
2017-12-28T06:33:56.374Z,4.60
2017-12-28T06:36:25.450Z,2.77
2017-12-28T06:38:54.545Z,2.70
2017-12-28T06:41:22.878Z,1.67
2017-12-28T06:43:52.051Z,2.00
2017-12-28T06:46:21.166Z,1.80
2017-12-28T06:48:49.822Z,1.60
2017-12-28T06:51:18.134Z,2.07
2017-12-28T06:53:46.440Z,1.77
2017-12-28T06:56:15.474Z,2.77
2017-12-28T06:58:43.827Z,2.07
2017-12-28T07:01:12.167Z,2.53
2017-12-28T07:03:40.536Z,2.43
2017-12-28T07:06:08.838Z,2.33
2017-12-28T07:08:37.150Z,2.80
2017-12-28T07:11:05.463Z,2.43
2017-12-28T07:13:33.774Z,2.53
2017-12-28T07:16:02.110Z,2.80
2017-12-28T07:18:30.416Z,2.30
2017-12-28T07:20:58.718Z,2.00
2017-12-28T07:23:26.990Z,2.93
2017-12-28T07:25:55.277Z,4.07
2017-12-28T07:28:24.343Z,3.47
2017-12-28T07:30:58.472Z,3.07
2017-12-28T07:33:26.796Z,3.45
2017-12-28T07:35:56.095Z,3.00
2017-12-28T07:38:25.211Z,3.40
2017-12-28T07:40:53.536Z,3.97
2017-12-28T07:43:25.254Z,2.40
2017-12-28T07:45:53.529Z,3.10
2017-12-28T07:48:32.076Z,2.97
2017-12-28T07:51:00.423Z,3.30
2017-12-28T07:53:29.469Z,3.10
2017-12-28T07:55:57.824Z,3.17
2017-12-28T07:58:26.465Z,2.73
2017-12-28T08:00:55.002Z,3.87
2017-12-28T08:03:23.367Z,4.23
2017-12-28T08:05:52.408Z,3.40
2017-12-28T08:08:21.550Z,2.80
2017-12-28T08:10:49.858Z,3.87
2017-12-28T08:13:19.533Z,3.50
2017-12-28T08:15:47.818Z,2.93
2017-12-28T08:18:16.126Z,2.67
2017-12-28T08:20:44.411Z,2.50
2017-12-28T08:23:12.729Z,4.00
2017-12-28T08:25:41.034Z,2.60
2017-12-28T08:28:09.317Z,2.93
2017-12-28T08:30:37.617Z,2.77
2017-12-28T08:33:05.929Z,2.70
2017-12-28T08:35:34.980Z,9.07
2017-12-28T08:38:03.308Z,3.17
2017-12-28T08:40:39.344Z,2.93
2017-12-28T08:43:08.356Z,3.30
2017-12-28T08:45:36.631Z,2.67
2017-12-28T08:48:08.229Z,2.50
2017-12-28T08:50:36.566Z,3.10
2017-12-28T08:53:09.201Z,3.03
2017-12-28T08:55:37.528Z,2.73
2017-12-28T08:58:05.822Z,2.10
2017-12-28T09:00:34.154Z,2.90
2017-12-28T09:03:04.282Z,2.10
2017-12-28T09:05:32.646Z,2.37
2017-12-28T09:08:01.769Z,1.40
2017-12-28T09:10:30.150Z,1.90
2017-12-28T09:12:58.425Z,2.30
2017-12-28T09:15:26.741Z,2.50
2017-12-28T09:17:55.070Z,3.20
2017-12-28T09:20:24.118Z,2.30
2017-12-28T09:22:52.461Z,3.63
2017-12-28T09:25:21.768Z,2.20
2017-12-28T09:27:51.869Z,1.77
2017-12-28T09:30:20.929Z,2.40
2017-12-28T09:32:49.492Z,2.27
2017-12-28T09:35:17.773Z,2.17
2017-12-28T09:37:51.258Z,2.33
2017-12-28T09:40:19.527Z,2.17
2017-12-28T09:42:47.790Z,2.20
2017-12-28T09:45:17.190Z,2.00
2017-12-28T09:47:51.449Z,2.40
2017-12-28T09:50:19.786Z,2.80
2017-12-28T09:52:49.351Z,1.80
2017-12-28T09:55:17.667Z,2.40
2017-12-28T09:57:46.107Z,3.03
2017-12-28T10:00:14.375Z,2.17
2017-12-28T10:02:42.734Z,2.20
2017-12-28T10:05:11.787Z,2.17
2017-12-28T10:07:40.091Z,2.87
2017-12-28T10:10:08.417Z,2.50
2017-12-28T10:12:36.685Z,2.57
2017-12-28T10:15:05.782Z,2.50
2017-12-28T10:17:34.854Z,2.07
2017-12-28T10:20:03.924Z,2.00
2017-12-28T10:22:32.213Z,2.60
2017-12-28T10:25:00.525Z,2.60
2017-12-28T10:27:28.846Z,2.30
2017-12-28T10:29:57.166Z,2.47
2017-12-28T10:32:25.508Z,2.50
2017-12-28T10:34:53.816Z,3.00
2017-12-28T10:37:22.907Z,2.67
2017-12-28T10:39:54.662Z,3.43
2017-12-28T10:42:23.010Z,2.43
2017-12-28T10:44:51.324Z,3.23
2017-12-28T10:47:19.682Z,2.57
2017-12-28T10:49:48.070Z,3.93
2017-12-28T10:52:16.547Z,3.50
2017-12-28T10:54:47.571Z,2.57
2017-12-28T10:57:15.902Z,2.80
2017-12-28T10:59:44.222Z,2.87
2017-12-28T11:02:12.622Z,2.77
2017-12-28T11:04:41.898Z,3.20
2017-12-28T11:07:10.193Z,2.43
2017-12-28T11:09:42.570Z,2.87
2017-12-28T11:12:10.862Z,2.43
2017-12-28T11:14:39.168Z,2.20
2017-12-28T11:17:07.481Z,2.27
2017-12-28T11:19:35.778Z,2.10
2017-12-28T11:22:04.923Z,2.23
2017-12-28T11:24:33.262Z,2.00
2017-12-28T11:27:01.578Z,2.30
2017-12-28T11:29:30.639Z,2.57
2017-12-28T11:31:59.727Z,2.33
2017-12-28T11:34:28.026Z,2.90
2017-12-28T11:36:56.334Z,2.23
2017-12-28T11:39:24.639Z,2.57
2017-12-28T11:41:53.674Z,1.70
2017-12-28T11:44:21.970Z,2.80
2017-12-28T11:46:51.096Z,2.70
2017-12-28T11:49:20.754Z,4.70
2017-12-28T11:51:58.620Z,2.63
2017-12-28T11:54:32.513Z,2.70
2017-12-28T12:10:32.143Z,2.20
2017-12-28T12:13:00.446Z,2.50
2017-12-28T12:15:29.523Z,3.17
2017-12-28T12:17:57.813Z,3.17
2017-12-28T12:20:26.134Z,2.73
2017-12-28T12:22:54.445Z,2.77
2017-12-28T12:25:22.772Z,2.40
2017-12-28T12:27:51.886Z,2.17
2017-12-28T12:30:20.247Z,4.60
2017-12-28T12:32:48.548Z,3.27
2017-12-28T12:35:16.908Z,2.93
2017-12-28T12:37:46.052Z,3.23
2017-12-28T12:40:14.345Z,2.67
2017-12-28T12:42:42.700Z,3.60
2017-12-28T12:45:10.995Z,3.07
2017-12-28T12:47:39.330Z,2.60
2017-12-28T12:50:07.964Z,2.40
2017-12-28T12:52:37.172Z,3.33
2017-12-28T12:55:06.360Z,2.70
2017-12-28T12:57:35.420Z,2.77
2017-12-28T13:00:05.228Z,3.20
2017-12-28T13:02:33.571Z,2.40
2017-12-28T13:05:01.896Z,2.83
2017-12-28T13:07:30.232Z,3.43
2017-12-28T13:09:58.537Z,3.20
2017-12-28T13:12:26.848Z,3.00
2017-12-28T13:14:55.163Z,3.30
2017-12-28T13:17:23.496Z,3.67
2017-12-28T13:19:51.867Z,3.50
2017-12-28T13:22:20.161Z,3.00
2017-12-28T13:24:49.270Z,2.53
2017-12-28T13:27:17.642Z,2.87
2017-12-28T13:29:45.953Z,2.17
2017-12-28T13:32:15.108Z,2.73
2017-12-28T13:34:43.505Z,2.70
2017-12-28T13:37:11.818Z,2.80
2017-12-28T13:39:40.163Z,1.70
2017-12-28T13:42:08.488Z,2.33
2017-12-28T13:44:37.611Z,2.50
2017-12-28T13:47:05.925Z,2.50
2017-12-28T13:49:34.985Z,2.37
2017-12-28T13:52:04.080Z,1.67
2017-12-28T13:54:32.694Z,2.23
2017-12-28T13:57:01.034Z,2.60
2017-12-28T13:59:29.336Z,2.40
2017-12-28T14:01:58.412Z,2.27
2017-12-28T14:04:27.464Z,2.17
2017-12-28T14:06:56.649Z,2.73
2017-12-28T14:09:25.705Z,2.57
2017-12-28T14:11:54.001Z,2.47
2017-12-28T14:14:22.361Z,2.43
2017-12-28T14:16:51.308Z,1.90
2017-12-28T14:19:19.656Z,2.40
2017-12-28T14:21:47.992Z,3.00
2017-12-28T14:24:16.330Z,1.97
2017-12-28T14:26:44.694Z,2.70
2017-12-28T14:29:13.820Z,2.50
2017-12-28T14:31:42.125Z,3.10
2017-12-28T14:34:11.218Z,2.20
2017-12-28T14:36:39.521Z,4.60
2017-12-28T14:39:07.841Z,2.43
2017-12-28T14:41:36.171Z,2.50
2017-12-28T14:44:05.248Z,2.50
2017-12-28T14:46:33.690Z,3.43
2017-12-28T14:49:02.038Z,2.90
2017-12-28T14:51:30.338Z,2.43
2017-12-28T14:53:58.633Z,2.87
2017-12-28T14:56:26.938Z,2.90
2017-12-28T14:58:55.259Z,2.43
2017-12-28T15:01:23.593Z,2.87
2017-12-28T15:03:51.891Z,2.97
2017-12-28T15:06:21.221Z,2.00
2017-12-28T15:08:49.511Z,3.00
2017-12-28T15:11:17.903Z,2.80
2017-12-28T15:13:47.182Z,2.33
2017-12-28T15:16:15.471Z,1.83
2017-12-28T15:18:44.522Z,2.00
2017-12-28T15:21:13.626Z,1.77
2017-12-28T15:23:41.953Z,2.43
2017-12-28T15:26:10.269Z,2.80
2017-12-28T15:28:38.581Z,2.30
2017-12-28T15:31:06.871Z,1.83
2017-12-28T15:33:35.197Z,2.30
2017-12-28T15:36:03.545Z,3.07
2017-12-28T15:38:32.596Z,1.93
2017-12-28T15:41:00.948Z,2.07
2017-12-28T15:43:29.232Z,2.30
2017-12-28T15:45:58.325Z,2.13
2017-12-28T15:48:26.625Z,1.80
2017-12-28T15:50:54.941Z,2.60
2017-12-28T15:53:23.297Z,1.90
2017-12-28T15:55:51.603Z,1.90
2017-12-28T15:58:20.690Z,2.50
2017-12-28T16:00:49.769Z,2.40
2017-12-28T16:03:18.056Z,2.27
2017-12-28T16:05:46.381Z,2.73
2017-12-28T16:08:14.797Z,2.40
2017-12-28T16:10:43.302Z,2.00
2017-12-28T16:13:11.618Z,3.43
2017-12-28T16:15:39.923Z,1.80
2017-12-28T16:18:08.233Z,2.00
2017-12-28T16:20:36.548Z,1.90
2017-12-28T16:23:05.613Z,2.70
2017-12-28T16:25:33.928Z,2.00
2017-12-28T16:28:03.060Z,1.70
2017-12-28T16:30:32.168Z,1.60
2017-12-28T16:33:01.255Z,1.47
2017-12-28T16:35:30.356Z,1.77
2017-12-28T16:37:58.695Z,2.08
2017-12-28T16:40:27.052Z,2.07
2017-12-28T16:42:56.176Z,2.40
2017-12-28T16:45:24.506Z,1.58
2017-12-28T16:47:52.816Z,1.70
2017-12-28T16:50:21.183Z,1.70
2017-12-28T16:52:49.581Z,1.83
2017-12-28T16:55:17.860Z,2.27
2017-12-28T16:57:46.255Z,1.90
2017-12-28T17:00:15.003Z,1.87
2017-12-28T17:02:43.305Z,3.00
2017-12-28T17:05:11.621Z,2.10
2017-12-28T17:07:39.928Z,2.50
2017-12-28T17:10:09.020Z,1.60
2017-12-28T17:12:38.261Z,2.08
2017-12-28T17:15:06.583Z,2.00
2017-12-28T17:17:35.389Z,2.50
2017-12-28T17:20:03.679Z,2.40
2017-12-28T17:22:32.069Z,2.58
2017-12-28T17:25:00.381Z,1.42
2017-12-28T17:27:29.464Z,2.15
2017-12-28T17:29:57.790Z,1.93
2017-12-28T17:32:26.068Z,2.03
2017-12-28T17:34:55.317Z,2.13
2017-12-28T17:37:23.667Z,2.33
2017-12-28T17:39:51.956Z,2.10
2017-12-28T17:42:20.308Z,1.57
2017-12-28T17:44:48.724Z,2.10
2017-12-28T17:47:17.073Z,2.03
2017-12-28T17:49:46.021Z,1.90
2017-12-28T17:52:14.383Z,1.90
2017-12-28T17:54:42.703Z,2.80
2017-12-28T17:57:11.059Z,2.30
2017-12-28T17:59:39.368Z,2.47
2017-12-28T18:02:07.688Z,2.63
2017-12-28T18:04:35.997Z,3.17
2017-12-28T18:07:04.293Z,2.60
2017-12-28T18:09:32.614Z,2.83
2017-12-28T18:12:01.668Z,2.90
2017-12-28T18:14:29.987Z,2.40
2017-12-28T18:16:58.316Z,2.30
2017-12-28T18:19:27.428Z,2.50
2017-12-28T18:21:55.727Z,2.83
2017-12-28T18:24:26.497Z,2.10
2017-12-28T18:26:59.845Z,2.40
2017-12-28T18:29:28.184Z,3.22
2017-12-28T18:31:57.256Z,2.20
2017-12-28T18:34:25.577Z,2.20
2017-12-28T18:36:53.976Z,2.20
2017-12-28T18:39:22.294Z,2.10
2017-12-28T18:41:50.727Z,3.03
2017-12-28T18:44:19.068Z,2.83
2017-12-28T18:46:47.389Z,2.13
2017-12-28T18:49:15.894Z,2.20
2017-12-28T18:51:44.196Z,2.23
2017-12-28T18:54:12.528Z,2.87
2017-12-28T18:56:40.860Z,1.95
2017-12-28T18:59:09.148Z,2.20
2017-12-28T19:01:37.553Z,2.20
2017-12-28T19:04:06.728Z,3.67
2017-12-28T19:06:36.042Z,2.50
2017-12-28T19:09:06.569Z,5.97
2017-12-28T19:11:34.983Z,3.50
2017-12-28T19:14:04.149Z,2.70
2017-12-28T19:16:32.488Z,2.75
2017-12-28T19:19:00.816Z,2.78
2017-12-28T19:21:29.148Z,3.20
2017-12-28T19:23:58.201Z,2.80
2017-12-28T19:26:27.672Z,2.70
2017-12-28T19:28:55.992Z,3.28
2017-12-28T19:31:24.290Z,2.50
2017-12-28T19:33:52.609Z,4.45
2017-12-28T19:36:20.948Z,3.67
2017-12-28T19:38:49.249Z,2.83
2017-12-28T19:41:17.564Z,2.95
2017-12-28T19:43:45.862Z,2.80
2017-12-28T19:46:14.226Z,2.85
2017-12-28T19:48:42.545Z,2.40
2017-12-28T19:51:11.600Z,2.30
2017-12-28T19:53:39.930Z,2.42
2017-12-28T19:56:08.255Z,2.30
2017-12-28T19:58:36.556Z,2.58
2017-12-28T20:01:05.627Z,2.40
2017-12-28T20:03:33.941Z,2.97
2017-12-28T20:06:02.250Z,3.30
2017-12-28T20:08:30.588Z,2.00
2017-12-28T20:10:58.952Z,2.50
2017-12-28T20:13:27.274Z,2.85
2017-12-28T20:15:55.583Z,2.30
2017-12-28T20:18:23.917Z,2.42
2017-12-28T20:20:52.201Z,3.65
2017-12-28T20:23:20.579Z,2.10
2017-12-28T20:25:48.879Z,2.47
2017-12-28T20:28:17.244Z,2.35
2017-12-28T20:30:45.604Z,2.35
2017-12-28T20:33:13.925Z,2.58
2017-12-28T20:35:42.241Z,2.28
2017-12-28T20:38:10.556Z,3.12
2017-12-28T20:40:38.922Z,2.25
2017-12-28T20:43:07.245Z,2.42
2017-12-28T20:45:35.548Z,2.62
2017-12-28T20:48:03.911Z,2.20
2017-12-28T20:50:32.160Z,2.37
2017-12-28T20:53:00.612Z,2.37
2017-12-28T20:55:29.773Z,2.03
2017-12-28T20:57:58.066Z,2.90
2017-12-28T21:00:26.434Z,2.03
2017-12-28T21:02:54.754Z,2.33
2017-12-28T21:05:23.079Z,2.25
2017-12-28T21:07:51.396Z,2.80
2017-12-28T21:10:19.719Z,2.70
2017-12-28T21:12:48.034Z,3.75
2017-12-28T21:15:16.433Z,2.78
2017-12-28T21:17:44.768Z,2.22
2017-12-28T21:20:13.064Z,2.65
2017-12-28T21:22:41.355Z,2.20
2017-12-28T21:25:09.732Z,2.85
2017-12-28T21:27:38.503Z,2.20
2017-12-28T21:30:06.856Z,2.58
2017-12-28T21:32:35.219Z,2.70
2017-12-28T21:35:03.549Z,2.47
2017-12-28T21:37:31.872Z,1.90
2017-12-28T21:40:00.158Z,2.72
2017-12-28T21:42:28.466Z,2.58
2017-12-28T21:44:56.797Z,2.00
2017-12-28T21:47:25.142Z,1.65
2017-12-28T21:49:53.445Z,1.98
2017-12-28T21:52:21.800Z,2.70
2017-12-28T21:54:50.177Z,2.62
2017-12-28T21:57:19.591Z,3.10
2017-12-28T21:59:47.875Z,2.08
2017-12-28T22:02:16.958Z,2.45
2017-12-28T22:04:45.256Z,3.62
2017-12-28T22:07:13.573Z,2.67
2017-12-28T22:09:41.852Z,2.10
2017-12-28T22:12:10.168Z,2.95
2017-12-28T22:14:38.460Z,2.50
2017-12-28T22:17:06.935Z,3.40
2017-12-28T22:19:35.943Z,2.75
2017-12-28T22:22:05.103Z,3.45
2017-12-28T22:24:34.169Z,2.35
2017-12-28T22:27:03.252Z,2.85
2017-12-28T22:29:32.334Z,2.17
2017-12-28T22:32:00.811Z,3.10
2017-12-28T22:34:29.137Z,2.60
2017-12-28T22:36:57.468Z,2.60
2017-12-28T22:39:25.798Z,2.70
2017-12-28T22:41:54.113Z,3.92
2017-12-28T22:44:22.452Z,2.65
2017-12-28T22:46:50.862Z,2.00
2017-12-28T22:49:19.229Z,2.15
2017-12-28T22:51:47.587Z,3.40
2017-12-28T22:54:15.951Z,2.25
2017-12-28T22:56:44.344Z,3.45
2017-12-28T22:59:12.648Z,2.37
2017-12-28T23:01:41.717Z,2.50
2017-12-28T23:04:10.025Z,1.67
2017-12-28T23:06:38.336Z,2.28
2017-12-28T23:09:06.709Z,1.92
2017-12-28T23:11:35.037Z,2.55
2017-12-28T23:14:03.355Z,2.55
2017-12-28T23:16:31.639Z,2.83
2017-12-28T23:19:00.727Z,3.10
2017-12-28T23:21:29.022Z,2.92
2017-12-28T23:23:57.668Z,2.75
2017-12-28T23:26:26.012Z,4.35
2017-12-28T23:28:54.377Z,2.50
2017-12-28T23:31:22.686Z,2.83
2017-12-28T23:33:51.156Z,2.70
2017-12-28T23:36:19.448Z,3.00
2017-12-28T23:38:47.780Z,2.85
2017-12-28T23:41:16.091Z,2.85
2017-12-28T23:43:44.410Z,2.92
2017-12-28T23:46:13.470Z,1.75
2017-12-28T23:48:41.856Z,2.60
2017-12-28T23:51:10.178Z,2.40
2017-12-28T23:53:38.460Z,2.60
2017-12-28T23:56:06.771Z,2.92
2017-12-28T23:58:35.078Z,3.67
